sensor_id;sensor_type;location;lat;lon;timestamp;P1;durP1;ratioP1;P2;durP2;ratioP2
17773;SDS011;9011;33.236;-97.118;2022-12-29T00:01:00;4.00;;;2.28;;
17773;SDS011;9011;33.236;-97.118;2022-12-29T00:03:29;2.53;;;1.88;;
17773;SDS011;9011;33.236;-97.118;2022-12-29T00:05:57;3.85;;;1.98;;
17773;SDS011;9011;33.236;-97.118;2022-12-29T00:08:29;2.10;;;1.88;;
17773;SDS011;9011;33.236;-97.118;2022-12-29T00:11:06;3.00;;;1.73;;
17773;SDS011;9011;33.236;-97.118;2022-12-29T00:13:35;4.80;;;1.63;;
17773;SDS011;9011;33.236;-97.118;2022-12-29T00:16:21;5.63;;;2.00;;
17773;SDS011;9011;33.236;-97.118;2022-12-29T00:18:49;3.20;;;1.98;;
17773;SDS011;9011;33.236;-97.118;2022-12-29T00:21:19;5.47;;;1.75;;
17773;SDS011;9011;33.236;-97.118;2022-12-29T00:24:08;2.13;;;1.80;;
17773;SDS011;9011;33.236;-97.118;2022-12-29T00:26:58;3.58;;;1.98;;
17773;SDS011;9011;33.236;-97.118;2022-12-29T00:30:07;3.22;;;1.75;;
17773;SDS011;9011;33.236;-97.118;2022-12-29T00:32:54;3.80;;;2.10;;
17773;SDS011;9011;33.236;-97.118;2022-12-29T00:35:42;4.45;;;1.70;;
17773;SDS011;9011;33.236;-97.118;2022-12-29T00:38:13;3.15;;;1.58;;
17773;SDS011;9011;33.236;-97.118;2022-12-29T00:41:00;3.80;;;2.30;;
17773;SDS011;9011;33.236;-97.118;2022-12-29T00:43:46;4.32;;;2.08;;
17773;SDS011;9011;33.236;-97.118;2022-12-29T00:46:33;5.28;;;1.90;;
17773;SDS011;9011;33.236;-97.118;2022-12-29T00:49:02;5.00;;;1.85;;
17773;SDS011;9011;33.236;-97.118;2022-12-29T00:51:48;2.42;;;1.55;;
17773;SDS011;9011;33.236;-97.118;2022-12-29T00:54:17;1.98;;;1.60;;
17773;SDS011;9011;33.236;-97.118;2022-12-29T00:56:48;2.15;;;1.73;;
17773;SDS011;9011;33.236;-97.118;2022-12-29T00:59:17;3.15;;;1.65;;
17773;SDS011;9011;33.236;-97.118;2022-12-29T01:01:47;5.22;;;2.15;;
17773;SDS011;9011;33.236;-97.118;2022-12-29T01:04:15;2.35;;;1.67;;
17773;SDS011;9011;33.236;-97.118;2022-12-29T01:06:44;3.85;;;1.92;;
17773;SDS011;9011;33.236;-97.118;2022-12-29T01:09:13;3.00;;;1.80;;
17773;SDS011;9011;33.236;-97.118;2022-12-29T01:12:00;2.60;;;1.80;;
17773;SDS011;9011;33.236;-97.118;2022-12-29T01:14:29;2.72;;;1.80;;
17773;SDS011;9011;33.236;-97.118;2022-12-29T01:16:58;2.88;;;1.70;;
17773;SDS011;9011;33.236;-97.118;2022-12-29T01:19:26;1.83;;;1.48;;
17773;SDS011;9011;33.236;-97.118;2022-12-29T01:21:55;4.32;;;2.25;;
17773;SDS011;9011;33.236;-97.118;2022-12-29T01:24:24;2.80;;;1.77;;
17773;SDS011;9011;33.236;-97.118;2022-12-29T01:26:52;3.20;;;2.10;;
17773;SDS011;9011;33.236;-97.118;2022-12-29T01:29:23;3.05;;;1.85;;
17773;SDS011;9011;33.236;-97.118;2022-12-29T01:31:51;3.30;;;1.90;;
17773;SDS011;9011;33.236;-97.118;2022-12-29T01:34:20;3.55;;;1.70;;
17773;SDS011;9011;33.236;-97.118;2022-12-29T01:36:48;2.50;;;1.80;;
17773;SDS011;9011;33.236;-97.118;2022-12-29T01:39:17;2.10;;;1.77;;
17773;SDS011;9011;33.236;-97.118;2022-12-29T01:41:46;2.63;;;1.73;;
17773;SDS011;9011;33.236;-97.118;2022-12-29T01:47:27;2.63;;;1.70;;
17773;SDS011;9011;33.236;-97.118;2022-12-29T01:49:59;3.55;;;1.60;;
17773;SDS011;9011;33.236;-97.118;2022-12-29T01:52:33;2.38;;;2.00;;
17773;SDS011;9011;33.236;-97.118;2022-12-29T01:55:05;2.50;;;1.75;;
17773;SDS011;9011;33.236;-97.118;2022-12-29T01:57:36;4.63;;;1.75;;
17773;SDS011;9011;33.236;-97.118;2022-12-29T02:00:10;3.75;;;1.63;;
17773;SDS011;9011;33.236;-97.118;2022-12-29T02:02:40;6.68;;;1.88;;
17773;SDS011;9011;33.236;-97.118;2022-12-29T02:05:14;4.18;;;1.95;;
17773;SDS011;9011;33.236;-97.118;2022-12-29T02:07:48;4.78;;;2.00;;
17773;SDS011;9011;33.236;-97.118;2022-12-29T02:10:20;2.42;;;1.88;;
17773;SDS011;9011;33.236;-97.118;2022-12-29T02:12:50;3.80;;;1.73;;
17773;SDS011;9011;33.236;-97.118;2022-12-29T02:15:21;3.33;;;1.83;;
17773;SDS011;9011;33.236;-97.118;2022-12-29T02:18:05;2.28;;;2.08;;
17773;SDS011;9011;33.236;-97.118;2022-12-29T02:21:00;2.30;;;1.70;;
17773;SDS011;9011;33.236;-97.118;2022-12-29T02:27:08;3.08;;;1.90;;
17773;SDS011;9011;33.236;-97.118;2022-12-29T02:30:06;3.20;;;2.10;;
17773;SDS011;9011;33.236;-97.118;2022-12-29T02:32:45;3.63;;;1.75;;
17773;SDS011;9011;33.236;-97.118;2022-12-29T02:35:23;2.92;;;2.08;;
17773;SDS011;9011;33.236;-97.118;2022-12-29T02:38:00;3.08;;;2.00;;
17773;SDS011;9011;33.236;-97.118;2022-12-29T02:40:41;2.78;;;1.98;;
17773;SDS011;9011;33.236;-97.118;2022-12-29T02:43:18;5.38;;;2.53;;
17773;SDS011;9011;33.236;-97.118;2022-12-29T02:45:53;3.58;;;1.92;;
17773;SDS011;9011;33.236;-97.118;2022-12-29T02:48:27;3.25;;;1.75;;
17773;SDS011;9011;33.236;-97.118;2022-12-29T02:51:01;3.15;;;1.92;;
17773;SDS011;9011;33.236;-97.118;2022-12-29T02:53:32;4.20;;;2.25;;
17773;SDS011;9011;33.236;-97.118;2022-12-29T02:56:19;3.25;;;2.22;;
17773;SDS011;9011;33.236;-97.118;2022-12-29T02:58:48;2.92;;;2.03;;
17773;SDS011;9011;33.236;-97.118;2022-12-29T03:01:21;4.57;;;2.10;;
17773;SDS011;9011;33.236;-97.118;2022-12-29T03:04:03;3.03;;;2.35;;
17773;SDS011;9011;33.236;-97.118;2022-12-29T03:06:52;4.90;;;2.03;;
17773;SDS011;9011;33.236;-97.118;2022-12-29T03:09:27;2.75;;;2.05;;
17773;SDS011;9011;33.236;-97.118;2022-12-29T03:12:07;3.03;;;2.00;;
17773;SDS011;9011;33.236;-97.118;2022-12-29T03:14:48;4.70;;;2.38;;
17773;SDS011;9011;33.236;-97.118;2022-12-29T03:17:45;2.70;;;1.88;;
17773;SDS011;9011;33.236;-97.118;2022-12-29T03:20:21;3.38;;;2.08;;
17773;SDS011;9011;33.236;-97.118;2022-12-29T03:22:55;2.28;;;2.08;;
17773;SDS011;9011;33.236;-97.118;2022-12-29T03:25:28;3.33;;;2.03;;
17773;SDS011;9011;33.236;-97.118;2022-12-29T03:28:01;2.78;;;1.85;;
17773;SDS011;9011;33.236;-97.118;2022-12-29T03:30:34;4.10;;;2.10;;
17773;SDS011;9011;33.236;-97.118;2022-12-29T03:33:07;5.78;;;2.20;;
17773;SDS011;9011;33.236;-97.118;2022-12-29T03:35:39;4.20;;;1.70;;
17773;SDS011;9011;33.236;-97.118;2022-12-29T03:38:13;2.80;;;2.10;;
17773;SDS011;9011;33.236;-97.118;2022-12-29T03:40:45;3.65;;;1.63;;
17773;SDS011;9011;33.236;-97.118;2022-12-29T03:43:17;3.33;;;2.15;;
17773;SDS011;9011;33.236;-97.118;2022-12-29T03:45:46;3.15;;;1.92;;
17773;SDS011;9011;33.236;-97.118;2022-12-29T03:48:15;3.15;;;1.92;;
17773;SDS011;9011;33.236;-97.118;2022-12-29T03:50:45;2.03;;;1.83;;
17773;SDS011;9011;33.236;-97.118;2022-12-29T03:53:14;3.65;;;1.77;;
17773;SDS011;9011;33.236;-97.118;2022-12-29T03:55:42;3.85;;;2.30;;
17773;SDS011;9011;33.236;-97.118;2022-12-29T03:58:11;4.10;;;1.92;;
17773;SDS011;9011;33.236;-97.118;2022-12-29T04:00:40;2.83;;;2.13;;
17773;SDS011;9011;33.236;-97.118;2022-12-29T04:03:08;3.03;;;2.22;;
17773;SDS011;9011;33.236;-97.118;2022-12-29T04:05:37;3.60;;;1.70;;
17773;SDS011;9011;33.236;-97.118;2022-12-29T04:08:07;2.88;;;1.67;;
17773;SDS011;9011;33.236;-97.118;2022-12-29T04:10:36;3.45;;;1.88;;
17773;SDS011;9011;33.236;-97.118;2022-12-29T04:13:04;2.28;;;1.85;;
17773;SDS011;9011;33.236;-97.118;2022-12-29T04:15:33;2.75;;;1.98;;
17773;SDS011;9011;33.236;-97.118;2022-12-29T04:18:01;4.53;;;2.50;;
17773;SDS011;9011;33.236;-97.118;2022-12-29T04:20:30;2.42;;;1.65;;
17773;SDS011;9011;33.236;-97.118;2022-12-29T04:23:17;3.90;;;1.83;;
17773;SDS011;9011;33.236;-97.118;2022-12-29T04:25:46;3.17;;;2.00;;
17773;SDS011;9011;33.236;-97.118;2022-12-29T04:28:15;4.50;;;1.80;;
17773;SDS011;9011;33.236;-97.118;2022-12-29T04:30:44;2.60;;;2.40;;
17773;SDS011;9011;33.236;-97.118;2022-12-29T04:33:13;6.70;;;2.00;;
17773;SDS011;9011;33.236;-97.118;2022-12-29T04:35:42;2.22;;;1.58;;
17773;SDS011;9011;33.236;-97.118;2022-12-29T04:38:11;3.67;;;1.45;;
17773;SDS011;9011;33.236;-97.118;2022-12-29T04:40:42;2.67;;;1.52;;
17773;SDS011;9011;33.236;-97.118;2022-12-29T04:43:12;3.38;;;1.73;;
17773;SDS011;9011;33.236;-97.118;2022-12-29T04:45:42;2.78;;;1.55;;
17773;SDS011;9011;33.236;-97.118;2022-12-29T04:48:12;2.75;;;1.75;;
17773;SDS011;9011;33.236;-97.118;2022-12-29T04:50:41;4.70;;;2.20;;
17773;SDS011;9011;33.236;-97.118;2022-12-29T04:53:11;2.80;;;1.88;;
17773;SDS011;9011;33.236;-97.118;2022-12-29T04:55:39;2.97;;;1.60;;
17773;SDS011;9011;33.236;-97.118;2022-12-29T04:58:10;3.28;;;1.70;;
17773;SDS011;9011;33.236;-97.118;2022-12-29T05:00:38;4.07;;;2.03;;
17773;SDS011;9011;33.236;-97.118;2022-12-29T05:03:07;2.53;;;1.73;;
17773;SDS011;9011;33.236;-97.118;2022-12-29T05:05:36;2.85;;;2.05;;
17773;SDS011;9011;33.236;-97.118;2022-12-29T05:08:04;3.13;;;1.90;;
17773;SDS011;9011;33.236;-97.118;2022-12-29T05:10:33;3.33;;;1.83;;
17773;SDS011;9011;33.236;-97.118;2022-12-29T05:13:03;3.72;;;1.88;;
17773;SDS011;9011;33.236;-97.118;2022-12-29T05:15:31;2.38;;;1.75;;
17773;SDS011;9011;33.236;-97.118;2022-12-29T05:18:00;2.75;;;1.80;;
17773;SDS011;9011;33.236;-97.118;2022-12-29T05:20:29;2.22;;;1.75;;
17773;SDS011;9011;33.236;-97.118;2022-12-29T05:22:57;2.00;;;1.83;;
17773;SDS011;9011;33.236;-97.118;2022-12-29T05:25:29;2.50;;;1.88;;
17773;SDS011;9011;33.236;-97.118;2022-12-29T05:27:57;4.88;;;1.90;;
17773;SDS011;9011;33.236;-97.118;2022-12-29T05:30:27;2.75;;;1.98;;
17773;SDS011;9011;33.236;-97.118;2022-12-29T05:32:56;2.53;;;1.70;;
17773;SDS011;9011;33.236;-97.118;2022-12-29T05:35:24;4.22;;;1.92;;
17773;SDS011;9011;33.236;-97.118;2022-12-29T05:37:53;3.72;;;1.65;;
17773;SDS011;9011;33.236;-97.118;2022-12-29T05:40:21;2.30;;;1.40;;
17773;SDS011;9011;33.236;-97.118;2022-12-29T05:42:50;2.25;;;1.83;;
17773;SDS011;9011;33.236;-97.118;2022-12-29T05:45:19;2.28;;;1.80;;
17773;SDS011;9011;33.236;-97.118;2022-12-29T05:47:49;2.35;;;1.85;;
17773;SDS011;9011;33.236;-97.118;2022-12-29T05:50:18;3.70;;;1.85;;
17773;SDS011;9011;33.236;-97.118;2022-12-29T05:52:46;4.28;;;1.77;;
17773;SDS011;9011;33.236;-97.118;2022-12-29T05:55:16;3.35;;;2.10;;
17773;SDS011;9011;33.236;-97.118;2022-12-29T05:57:45;4.95;;;2.20;;
17773;SDS011;9011;33.236;-97.118;2022-12-29T06:00:14;2.88;;;1.65;;
17773;SDS011;9011;33.236;-97.118;2022-12-29T06:02:45;4.40;;;1.77;;
17773;SDS011;9011;33.236;-97.118;2022-12-29T06:05:15;3.88;;;1.88;;
17773;SDS011;9011;33.236;-97.118;2022-12-29T06:07:44;2.55;;;1.40;;
17773;SDS011;9011;33.236;-97.118;2022-12-29T06:10:13;2.45;;;1.67;;
17773;SDS011;9011;33.236;-97.118;2022-12-29T06:12:42;3.05;;;2.28;;
17773;SDS011;9011;33.236;-97.118;2022-12-29T06:15:10;2.50;;;1.88;;
17773;SDS011;9011;33.236;-97.118;2022-12-29T06:17:39;1.73;;;1.50;;
17773;SDS011;9011;33.236;-97.118;2022-12-29T06:20:08;2.67;;;1.75;;
17773;SDS011;9011;33.236;-97.118;2022-12-29T06:22:39;4.22;;;1.85;;
17773;SDS011;9011;33.236;-97.118;2022-12-29T06:25:08;3.33;;;2.05;;
17773;SDS011;9011;33.236;-97.118;2022-12-29T06:27:36;2.13;;;1.70;;
17773;SDS011;9011;33.236;-97.118;2022-12-29T06:30:05;3.08;;;1.95;;
17773;SDS011;9011;33.236;-97.118;2022-12-29T06:32:35;2.55;;;1.60;;
17773;SDS011;9011;33.236;-97.118;2022-12-29T06:35:06;4.50;;;2.45;;
17773;SDS011;9011;33.236;-97.118;2022-12-29T06:37:35;4.93;;;2.13;;
17773;SDS011;9011;33.236;-97.118;2022-12-29T06:40:06;4.65;;;2.17;;
17773;SDS011;9011;33.236;-97.118;2022-12-29T06:42:35;2.30;;;1.70;;
17773;SDS011;9011;33.236;-97.118;2022-12-29T06:45:06;3.45;;;2.42;;
17773;SDS011;9011;33.236;-97.118;2022-12-29T06:47:35;4.43;;;1.95;;
17773;SDS011;9011;33.236;-97.118;2022-12-29T06:50:04;3.40;;;2.28;;
17773;SDS011;9011;33.236;-97.118;2022-12-29T06:52:33;5.15;;;1.92;;
17773;SDS011;9011;33.236;-97.118;2022-12-29T06:55:02;3.08;;;1.85;;
17773;SDS011;9011;33.236;-97.118;2022-12-29T06:57:32;4.50;;;2.50;;
17773;SDS011;9011;33.236;-97.118;2022-12-29T07:00:01;6.40;;;2.25;;
17773;SDS011;9011;33.236;-97.118;2022-12-29T07:02:30;4.18;;;1.88;;
17773;SDS011;9011;33.236;-97.118;2022-12-29T07:04:59;4.32;;;2.38;;
17773;SDS011;9011;33.236;-97.118;2022-12-29T07:07:30;3.70;;;2.30;;
17773;SDS011;9011;33.236;-97.118;2022-12-29T07:09:58;3.22;;;1.88;;
17773;SDS011;9011;33.236;-97.118;2022-12-29T07:12:27;6.60;;;2.60;;
17773;SDS011;9011;33.236;-97.118;2022-12-29T07:14:57;4.35;;;1.90;;
17773;SDS011;9011;33.236;-97.118;2022-12-29T07:17:28;3.92;;;2.40;;
17773;SDS011;9011;33.236;-97.118;2022-12-29T07:19:57;3.85;;;2.10;;
17773;SDS011;9011;33.236;-97.118;2022-12-29T07:22:26;3.75;;;2.33;;
17773;SDS011;9011;33.236;-97.118;2022-12-29T07:24:54;3.53;;;2.28;;
17773;SDS011;9011;33.236;-97.118;2022-12-29T07:27:23;7.80;;;2.70;;
17773;SDS011;9011;33.236;-97.118;2022-12-29T07:29:52;3.03;;;2.15;;
17773;SDS011;9011;33.236;-97.118;2022-12-29T07:32:22;6.00;;;2.47;;
17773;SDS011;9011;33.236;-97.118;2022-12-29T07:34:51;4.00;;;2.35;;
17773;SDS011;9011;33.236;-97.118;2022-12-29T07:37:19;3.53;;;2.20;;
17773;SDS011;9011;33.236;-97.118;2022-12-29T07:39:48;4.15;;;2.20;;
17773;SDS011;9011;33.236;-97.118;2022-12-29T07:42:17;3.35;;;2.40;;
17773;SDS011;9011;33.236;-97.118;2022-12-29T07:44:46;3.28;;;2.25;;
17773;SDS011;9011;33.236;-97.118;2022-12-29T07:47:15;3.58;;;2.58;;
17773;SDS011;9011;33.236;-97.118;2022-12-29T07:49:45;4.05;;;2.80;;
17773;SDS011;9011;33.236;-97.118;2022-12-29T07:52:13;5.63;;;2.83;;
17773;SDS011;9011;33.236;-97.118;2022-12-29T07:54:42;4.10;;;2.40;;
17773;SDS011;9011;33.236;-97.118;2022-12-29T07:57:11;6.22;;;2.50;;
17773;SDS011;9011;33.236;-97.118;2022-12-29T07:59:39;3.53;;;2.17;;
17773;SDS011;9011;33.236;-97.118;2022-12-29T08:02:09;6.50;;;3.15;;
17773;SDS011;9011;33.236;-97.118;2022-12-29T08:04:38;4.15;;;2.50;;
17773;SDS011;9011;33.236;-97.118;2022-12-29T08:07:08;4.60;;;2.38;;
17773;SDS011;9011;33.236;-97.118;2022-12-29T08:09:37;4.32;;;2.40;;
17773;SDS011;9011;33.236;-97.118;2022-12-29T08:12:07;3.17;;;2.88;;
17773;SDS011;9011;33.236;-97.118;2022-12-29T08:14:37;3.88;;;2.88;;
17773;SDS011;9011;33.236;-97.118;2022-12-29T08:17:06;5.45;;;2.58;;
17773;SDS011;9011;33.236;-97.118;2022-12-29T08:19:34;5.13;;;2.72;;
17773;SDS011;9011;33.236;-97.118;2022-12-29T08:22:03;5.55;;;3.40;;
17773;SDS011;9011;33.236;-97.118;2022-12-29T08:24:33;5.00;;;2.88;;
17773;SDS011;9011;33.236;-97.118;2022-12-29T08:27:01;5.68;;;3.55;;
17773;SDS011;9011;33.236;-97.118;2022-12-29T08:29:30;3.45;;;3.15;;
17773;SDS011;9011;33.236;-97.118;2022-12-29T08:31:59;5.65;;;3.30;;
17773;SDS011;9011;33.236;-97.118;2022-12-29T08:34:27;4.07;;;2.85;;
17773;SDS011;9011;33.236;-97.118;2022-12-29T08:36:57;6.43;;;2.85;;
17773;SDS011;9011;33.236;-97.118;2022-12-29T08:39:26;2.63;;;2.40;;
17773;SDS011;9011;33.236;-97.118;2022-12-29T08:41:56;3.65;;;3.03;;
17773;SDS011;9011;33.236;-97.118;2022-12-29T08:44:25;3.90;;;2.85;;
17773;SDS011;9011;33.236;-97.118;2022-12-29T08:46:53;5.20;;;3.05;;
17773;SDS011;9011;33.236;-97.118;2022-12-29T08:49:22;4.47;;;2.63;;
17773;SDS011;9011;33.236;-97.118;2022-12-29T08:51:50;3.03;;;2.55;;
17773;SDS011;9011;33.236;-97.118;2022-12-29T08:54:19;5.00;;;2.60;;
17773;SDS011;9011;33.236;-97.118;2022-12-29T08:56:48;2.85;;;2.55;;
17773;SDS011;9011;33.236;-97.118;2022-12-29T08:59:18;4.03;;;3.15;;
17773;SDS011;9011;33.236;-97.118;2022-12-29T09:01:47;4.72;;;2.97;;
17773;SDS011;9011;33.236;-97.118;2022-12-29T09:04:15;4.15;;;3.30;;
17773;SDS011;9011;33.236;-97.118;2022-12-29T09:06:44;4.18;;;2.92;;
17773;SDS011;9011;33.236;-97.118;2022-12-29T09:09:13;4.95;;;2.85;;
17773;SDS011;9011;33.236;-97.118;2022-12-29T09:11:42;4.40;;;3.15;;
17773;SDS011;9011;33.236;-97.118;2022-12-29T09:14:11;4.53;;;3.33;;
17773;SDS011;9011;33.236;-97.118;2022-12-29T09:16:41;4.82;;;3.30;;
17773;SDS011;9011;33.236;-97.118;2022-12-29T09:19:26;4.15;;;3.40;;
17773;SDS011;9011;33.236;-97.118;2022-12-29T09:21:55;4.20;;;2.83;;
17773;SDS011;9011;33.236;-97.118;2022-12-29T09:24:24;4.93;;;3.85;;
17773;SDS011;9011;33.236;-97.118;2022-12-29T09:26:52;4.18;;;3.78;;
17773;SDS011;9011;33.236;-97.118;2022-12-29T09:29:21;4.60;;;4.20;;
17773;SDS011;9011;33.236;-97.118;2022-12-29T09:31:51;4.70;;;3.72;;
17773;SDS011;9011;33.236;-97.118;2022-12-29T09:34:20;5.53;;;3.72;;
17773;SDS011;9011;33.236;-97.118;2022-12-29T09:36:49;4.22;;;3.75;;
17773;SDS011;9011;33.236;-97.118;2022-12-29T09:39:17;6.78;;;3.88;;
17773;SDS011;9011;33.236;-97.118;2022-12-29T09:41:48;4.18;;;3.63;;
17773;SDS011;9011;33.236;-97.118;2022-12-29T09:44:26;5.05;;;3.70;;
17773;SDS011;9011;33.236;-97.118;2022-12-29T09:47:07;4.63;;;3.80;;
17773;SDS011;9011;33.236;-97.118;2022-12-29T09:49:42;5.28;;;3.75;;
17773;SDS011;9011;33.236;-97.118;2022-12-29T09:52:15;4.25;;;3.78;;
17773;SDS011;9011;33.236;-97.118;2022-12-29T09:54:50;4.13;;;3.70;;
17773;SDS011;9011;33.236;-97.118;2022-12-29T09:57:21;4.72;;;4.18;;
17773;SDS011;9011;33.236;-97.118;2022-12-29T09:59:54;5.30;;;3.80;;
17773;SDS011;9011;33.236;-97.118;2022-12-29T10:02:36;5.03;;;3.92;;
17773;SDS011;9011;33.236;-97.118;2022-12-29T10:05:27;4.05;;;3.65;;
17773;SDS011;9011;33.236;-97.118;2022-12-29T10:08:04;4.85;;;4.43;;
17773;SDS011;9011;33.236;-97.118;2022-12-29T10:10:51;6.68;;;4.50;;
17773;SDS011;9011;33.236;-97.118;2022-12-29T10:13:28;5.60;;;4.68;;
17773;SDS011;9011;33.236;-97.118;2022-12-29T10:16:05;7.85;;;4.38;;
17773;SDS011;9011;33.236;-97.118;2022-12-29T10:18:52;6.88;;;4.70;;
17773;SDS011;9011;33.236;-97.118;2022-12-29T10:21:43;5.97;;;4.35;;
17773;SDS011;9011;33.236;-97.118;2022-12-29T10:24:20;7.80;;;4.82;;
17773;SDS011;9011;33.236;-97.118;2022-12-29T10:26:50;6.80;;;4.20;;
17773;SDS011;9011;33.236;-97.118;2022-12-29T10:29:20;6.13;;;4.60;;
17773;SDS011;9011;33.236;-97.118;2022-12-29T10:31:54;7.65;;;4.45;;
17773;SDS011;9011;33.236;-97.118;2022-12-29T10:34:28;4.63;;;4.22;;
17773;SDS011;9011;33.236;-97.118;2022-12-29T10:37:02;5.25;;;4.68;;
17773;SDS011;9011;33.236;-97.118;2022-12-29T10:39:40;5.47;;;4.95;;
17773;SDS011;9011;33.236;-97.118;2022-12-29T10:42:14;6.85;;;4.95;;
17773;SDS011;9011;33.236;-97.118;2022-12-29T10:44:48;6.88;;;4.97;;
17773;SDS011;9011;33.236;-97.118;2022-12-29T10:47:18;6.43;;;4.43;;
17773;SDS011;9011;33.236;-97.118;2022-12-29T10:49:50;7.55;;;5.47;;
17773;SDS011;9011;33.236;-97.118;2022-12-29T10:52:19;7.75;;;5.05;;
17773;SDS011;9011;33.236;-97.118;2022-12-29T10:54:50;6.60;;;4.93;;
17773;SDS011;9011;33.236;-97.118;2022-12-29T10:57:24;5.10;;;4.60;;
17773;SDS011;9011;33.236;-97.118;2022-12-29T10:59:55;5.60;;;5.10;;
17773;SDS011;9011;33.236;-97.118;2022-12-29T11:05:27;5.18;;;4.68;;
17773;SDS011;9011;33.236;-97.118;2022-12-29T11:08:01;5.75;;;5.20;;
17773;SDS011;9011;33.236;-97.118;2022-12-29T11:10:35;7.65;;;5.55;;
17773;SDS011;9011;33.236;-97.118;2022-12-29T11:13:11;5.60;;;5.05;;
17773;SDS011;9011;33.236;-97.118;2022-12-29T11:15:41;5.55;;;4.97;;
17773;SDS011;9011;33.236;-97.118;2022-12-29T11:18:18;5.82;;;5.30;;
17773;SDS011;9011;33.236;-97.118;2022-12-29T11:20:50;5.60;;;5.10;;
17773;SDS011;9011;33.236;-97.118;2022-12-29T11:23:25;7.40;;;5.22;;
17773;SDS011;9011;33.236;-97.118;2022-12-29T11:26:05;5.57;;;5.07;;
17773;SDS011;9011;33.236;-97.118;2022-12-29T11:28:35;5.95;;;4.80;;
17773;SDS011;9011;33.236;-97.118;2022-12-29T11:31:05;5.85;;;4.75;;
17773;SDS011;9011;33.236;-97.118;2022-12-29T11:33:34;5.68;;;5.18;;
17773;SDS011;9011;33.236;-97.118;2022-12-29T11:36:07;8.00;;;4.85;;
17773;SDS011;9011;33.236;-97.118;2022-12-29T11:38:40;5.65;;;5.13;;
17773;SDS011;9011;33.236;-97.118;2022-12-29T11:41:10;4.80;;;4.40;;
17773;SDS011;9011;33.236;-97.118;2022-12-29T11:43:47;6.38;;;4.88;;
17773;SDS011;9011;33.236;-97.118;2022-12-29T11:46:17;6.00;;;5.35;;
17773;SDS011;9011;33.236;-97.118;2022-12-29T11:48:48;7.05;;;5.80;;
17773;SDS011;9011;33.236;-97.118;2022-12-29T11:51:34;7.45;;;5.90;;
17773;SDS011;9011;33.236;-97.118;2022-12-29T11:54:06;7.30;;;5.65;;
17773;SDS011;9011;33.236;-97.118;2022-12-29T11:56:42;6.95;;;5.63;;
17773;SDS011;9011;33.236;-97.118;2022-12-29T12:02:26;6.20;;;5.70;;
17773;SDS011;9011;33.236;-97.118;2022-12-29T12:05:05;6.55;;;5.90;;
17773;SDS011;9011;33.236;-97.118;2022-12-29T12:07:41;8.02;;;5.78;;
17773;SDS011;9011;33.236;-97.118;2022-12-29T12:10:15;5.78;;;5.18;;
17773;SDS011;9011;33.236;-97.118;2022-12-29T12:12:50;7.38;;;5.50;;
17773;SDS011;9011;33.236;-97.118;2022-12-29T12:15:24;7.20;;;5.65;;
17773;SDS011;9011;33.236;-97.118;2022-12-29T12:18:00;6.95;;;6.32;;
17773;SDS011;9011;33.236;-97.118;2022-12-29T12:20:36;7.75;;;6.38;;
17773;SDS011;9011;33.236;-97.118;2022-12-29T12:23:16;6.30;;;5.55;;
17773;SDS011;9011;33.236;-97.118;2022-12-29T12:25:56;6.55;;;5.88;;
17773;SDS011;9011;33.236;-97.118;2022-12-29T12:28:33;7.60;;;5.88;;
17773;SDS011;9011;33.236;-97.118;2022-12-29T12:31:12;9.23;;;6.05;;
17773;SDS011;9011;33.236;-97.118;2022-12-29T12:33:50;7.63;;;6.80;;
17773;SDS011;9011;33.236;-97.118;2022-12-29T12:36:30;8.57;;;6.22;;
17773;SDS011;9011;33.236;-97.118;2022-12-29T12:39:17;7.18;;;6.47;;
17773;SDS011;9011;33.236;-97.118;2022-12-29T12:41:55;7.40;;;6.70;;
17773;SDS011;9011;33.236;-97.118;2022-12-29T12:44:35;7.25;;;6.43;;
17773;SDS011;9011;33.236;-97.118;2022-12-29T12:47:12;8.38;;;7.13;;
17773;SDS011;9011;33.236;-97.118;2022-12-29T12:55:56;8.00;;;6.90;;
17773;SDS011;9011;33.236;-97.118;2022-12-29T12:58:35;8.88;;;7.90;;
17773;SDS011;9011;33.236;-97.118;2022-12-29T13:01:18;7.25;;;6.55;;
17773;SDS011;9011;33.236;-97.118;2022-12-29T13:04:10;8.27;;;7.43;;
17773;SDS011;9011;33.236;-97.118;2022-12-29T13:06:55;8.02;;;7.22;;
17773;SDS011;9011;33.236;-97.118;2022-12-29T13:09:34;7.60;;;6.82;;
17773;SDS011;9011;33.236;-97.118;2022-12-29T13:12:18;7.90;;;7.10;;
17773;SDS011;9011;33.236;-97.118;2022-12-29T13:14:59;9.82;;;7.55;;
17773;SDS011;9011;33.236;-97.118;2022-12-29T13:17:37;9.43;;;7.85;;
17773;SDS011;9011;33.236;-97.118;2022-12-29T13:20:17;7.85;;;6.95;;
17773;SDS011;9011;33.236;-97.118;2022-12-29T13:22:50;9.57;;;7.70;;
17773;SDS011;9011;33.236;-97.118;2022-12-29T13:25:29;7.78;;;7.03;;
17773;SDS011;9011;33.236;-97.118;2022-12-29T13:28:04;8.18;;;7.25;;
17773;SDS011;9011;33.236;-97.118;2022-12-29T13:30:39;9.43;;;7.32;;
17773;SDS011;9011;33.236;-97.118;2022-12-29T13:33:15;9.10;;;7.78;;
17773;SDS011;9011;33.236;-97.118;2022-12-29T13:35:52;9.48;;;8.45;;
17773;SDS011;9011;33.236;-97.118;2022-12-29T13:38:29;9.68;;;7.53;;
17773;SDS011;9011;33.236;-97.118;2022-12-29T13:41:01;11.02;;;8.55;;
17773;SDS011;9011;33.236;-97.118;2022-12-29T13:43:35;10.57;;;8.75;;
17773;SDS011;9011;33.236;-97.118;2022-12-29T13:46:09;8.57;;;7.78;;
17773;SDS011;9011;33.236;-97.118;2022-12-29T13:48:41;9.48;;;8.48;;
17773;SDS011;9011;33.236;-97.118;2022-12-29T13:51:13;9.98;;;8.98;;
17773;SDS011;9011;33.236;-97.118;2022-12-29T13:53:51;10.35;;;7.88;;
17773;SDS011;9011;33.236;-97.118;2022-12-29T13:56:30;10.10;;;8.48;;
17773;SDS011;9011;33.236;-97.118;2022-12-29T13:59:05;9.57;;;8.02;;
17773;SDS011;9011;33.236;-97.118;2022-12-29T14:01:43;9.35;;;8.45;;
17773;SDS011;9011;33.236;-97.118;2022-12-29T14:04:21;11.05;;;9.23;;
17773;SDS011;9011;33.236;-97.118;2022-12-29T14:07:01;13.07;;;8.80;;
17773;SDS011;9011;33.236;-97.118;2022-12-29T14:09:45;11.45;;;9.20;;
17773;SDS011;9011;33.236;-97.118;2022-12-29T14:12:35;12.13;;;8.95;;
17773;SDS011;9011;33.236;-97.118;2022-12-29T14:15:14;9.75;;;8.75;;
17773;SDS011;9011;33.236;-97.118;2022-12-29T14:18:00;10.38;;;9.27;;
17773;SDS011;9011;33.236;-97.118;2022-12-29T14:20:32;12.23;;;9.88;;
17773;SDS011;9011;33.236;-97.118;2022-12-29T14:23:01;13.15;;;9.55;;
17773;SDS011;9011;33.236;-97.118;2022-12-29T14:25:54;11.40;;;8.57;;
17773;SDS011;9011;33.236;-97.118;2022-12-29T14:28:26;11.82;;;9.25;;
17773;SDS011;9011;33.236;-97.118;2022-12-29T14:30:58;9.55;;;8.65;;
17773;SDS011;9011;33.236;-97.118;2022-12-29T14:33:28;9.52;;;8.63;;
17773;SDS011;9011;33.236;-97.118;2022-12-29T14:38:48;13.52;;;9.20;;
17773;SDS011;9011;33.236;-97.118;2022-12-29T14:44:09;10.68;;;8.23;;
17773;SDS011;9011;33.236;-97.118;2022-12-29T14:46:47;10.20;;;7.93;;
17773;SDS011;9011;33.236;-97.118;2022-12-29T14:49:23;10.75;;;9.20;;
17773;SDS011;9011;33.236;-97.118;2022-12-29T14:51:54;9.50;;;8.45;;
17773;SDS011;9011;33.236;-97.118;2022-12-29T14:54:52;10.23;;;8.07;;
17773;SDS011;9011;33.236;-97.118;2022-12-29T14:57:24;9.75;;;8.50;;
17773;SDS011;9011;33.236;-97.118;2022-12-29T14:59:57;10.68;;;8.32;;
17773;SDS011;9011;33.236;-97.118;2022-12-29T15:02:34;8.20;;;7.35;;
17773;SDS011;9011;33.236;-97.118;2022-12-29T15:05:10;11.95;;;7.97;;
17773;SDS011;9011;33.236;-97.118;2022-12-29T15:07:54;9.23;;;7.70;;
17773;SDS011;9011;33.236;-97.118;2022-12-29T15:10:25;8.75;;;7.82;;
17773;SDS011;9011;33.236;-97.118;2022-12-29T15:13:02;8.85;;;7.80;;
17773;SDS011;9011;33.236;-97.118;2022-12-29T15:15:36;9.68;;;8.40;;
17773;SDS011;9011;33.236;-97.118;2022-12-29T15:18:20;9.13;;;8.02;;
17773;SDS011;9011;33.236;-97.118;2022-12-29T15:20:55;10.95;;;7.93;;
17773;SDS011;9011;33.236;-97.118;2022-12-29T15:23:26;9.80;;;8.00;;
17773;SDS011;9011;33.236;-97.118;2022-12-29T15:25:56;8.60;;;7.65;;
17773;SDS011;9011;33.236;-97.118;2022-12-29T15:28:27;10.32;;;7.93;;
17773;SDS011;9011;33.236;-97.118;2022-12-29T15:31:04;9.60;;;7.60;;
17773;SDS011;9011;33.236;-97.118;2022-12-29T15:33:41;9.40;;;8.15;;